createdAt,value
2022-11-10T00:01:53.942Z,11.40
2022-11-10T00:04:55.837Z,11.30
2022-11-10T00:07:58.445Z,11.40
2022-11-10T00:11:06.360Z,11.40
2022-11-10T00:14:27.231Z,11.40
2022-11-10T00:17:29.045Z,11.40
2022-11-10T00:20:31.529Z,11.30
2022-11-10T00:23:33.710Z,11.30
2022-11-10T00:26:35.736Z,11.30
2022-11-10T00:29:37.429Z,11.30
2022-11-10T00:32:39.122Z,11.30
2022-11-10T00:35:40.802Z,11.30
2022-11-10T00:38:43.107Z,11.30
2022-11-10T00:41:45.146Z,11.30
2022-11-10T00:44:47.126Z,11.20
2022-11-10T00:47:48.864Z,11.20
2022-11-10T00:50:50.615Z,11.20
2022-11-10T00:53:52.866Z,11.20
2022-11-10T00:56:54.944Z,11.10
2022-11-10T00:59:56.900Z,11.10
2022-11-10T01:02:58.676Z,11.10
2022-11-10T01:06:06.538Z,11.10
2022-11-10T01:09:08.400Z,11.10
2022-11-10T01:12:10.168Z,11.10
2022-11-10T01:15:11.950Z,11.10
2022-11-10T01:18:13.842Z,11.10
2022-11-10T01:21:15.943Z,11.20
2022-11-10T01:24:21.969Z,11.10
2022-11-10T01:27:23.724Z,11.10
2022-11-10T01:30:25.469Z,11.10
2022-11-10T01:33:27.323Z,11.10
2022-11-10T01:36:29.769Z,11.00
2022-11-10T01:39:31.499Z,11.00
2022-11-10T01:42:57.675Z,11.00
2022-11-10T01:46:06.971Z,11.10
2022-11-10T01:49:09.708Z,11.10
2022-11-10T01:52:13.765Z,11.10
2022-11-10T01:55:15.677Z,11.00
2022-11-10T01:58:22.849Z,11.00
2022-11-10T02:01:25.332Z,11.00
2022-11-10T02:04:27.544Z,11.00
2022-11-10T02:07:31.298Z,11.00
2022-11-10T02:10:33.337Z,11.00
2022-11-10T02:13:35.063Z,10.90
2022-11-10T02:16:37.416Z,11.00
2022-11-10T02:19:42.668Z,10.90
2022-11-10T02:22:44.375Z,10.90
2022-11-10T02:25:46.269Z,10.90
2022-11-10T02:28:48.309Z,11.00
2022-11-10T02:31:50.063Z,10.90
2022-11-10T02:34:51.855Z,10.90
2022-11-10T02:37:53.996Z,10.80
2022-11-10T02:40:55.799Z,10.90
2022-11-10T02:43:58.535Z,10.90
2022-11-10T02:47:00.381Z,10.90
2022-11-10T02:50:02.180Z,10.80
2022-11-10T02:53:04.715Z,10.80
2022-11-10T02:56:06.888Z,10.80
2022-11-10T02:59:09.090Z,10.80
2022-11-10T03:02:10.845Z,10.90
2022-11-10T03:05:12.734Z,10.80
2022-11-10T03:08:14.416Z,10.90
2022-11-10T03:11:16.201Z,10.80
2022-11-10T03:14:18.363Z,10.80
2022-11-10T03:17:20.196Z,10.80
2022-11-10T03:20:22.142Z,10.90
2022-11-10T03:23:24.625Z,10.90
2022-11-10T03:26:26.837Z,10.80
2022-11-10T03:29:28.666Z,10.90
2022-11-10T03:32:30.474Z,10.80
2022-11-10T03:35:32.328Z,10.80
2022-11-10T03:38:34.722Z,10.80
2022-11-10T03:41:36.628Z,10.80
2022-11-10T03:44:38.386Z,10.80
2022-11-10T03:47:40.366Z,10.80
2022-11-10T03:50:42.589Z,10.80
2022-11-10T03:53:44.574Z,10.80
2022-11-10T03:56:46.303Z,10.80
2022-11-10T03:59:48.100Z,10.80
2022-11-10T04:02:49.873Z,10.70
2022-11-10T04:06:10.679Z,10.70
2022-11-10T04:09:12.446Z,10.70
2022-11-10T04:12:32.732Z,10.80
2022-11-10T04:15:43.346Z,10.80
2022-11-10T04:18:45.095Z,10.70
2022-11-10T04:21:47.069Z,10.70
2022-11-10T04:24:49.025Z,10.70
2022-11-10T04:27:51.025Z,10.70
2022-11-10T04:30:52.708Z,10.60
2022-11-10T04:33:55.284Z,10.60
2022-11-10T04:36:57.173Z,10.60
2022-11-10T04:39:59.473Z,10.60
2022-11-10T04:43:01.464Z,10.60
2022-11-10T04:46:04.540Z,10.60
2022-11-10T04:49:07.683Z,10.60
2022-11-10T04:52:09.392Z,10.60
2022-11-10T04:55:11.168Z,10.60
2022-11-10T04:58:14.141Z,10.50
2022-11-10T05:01:19.231Z,10.60
2022-11-10T05:04:21.025Z,10.60
2022-11-10T05:07:22.902Z,10.60
2022-11-10T05:10:25.832Z,10.50
2022-11-10T05:13:28.017Z,10.50
2022-11-10T05:16:29.931Z,10.50
2022-11-10T05:19:31.713Z,10.50
2022-11-10T05:22:33.485Z,10.50
2022-11-10T05:25:38.822Z,10.50
2022-11-10T05:28:42.459Z,10.60
2022-11-10T05:31:47.842Z,10.50
2022-11-10T05:34:52.287Z,10.50
2022-11-10T05:37:54.125Z,10.50
2022-11-10T05:40:56.577Z,10.50
2022-11-10T05:43:58.362Z,10.50
2022-11-10T05:47:00.089Z,10.50
2022-11-10T05:50:02.080Z,10.50
2022-11-10T05:53:04.087Z,10.50
2022-11-10T05:56:06.375Z,10.50
2022-11-10T05:59:08.065Z,10.50
2022-11-10T06:02:09.761Z,10.50
2022-11-10T06:05:12.163Z,10.50
2022-11-10T06:08:14.725Z,10.50
2022-11-10T06:11:16.553Z,10.40
2022-11-10T06:14:18.256Z,10.40
2022-11-10T06:17:19.994Z,10.40
2022-11-10T06:20:22.741Z,10.30
2022-11-10T06:23:24.893Z,10.30
2022-11-10T06:26:26.960Z,10.40
2022-11-10T06:29:28.852Z,10.30
2022-11-10T06:32:30.922Z,10.40
2022-11-10T06:35:32.938Z,10.40
2022-11-10T06:38:35.512Z,10.40
2022-11-10T06:41:37.301Z,10.40
2022-11-10T06:44:39.305Z,10.40
2022-11-10T06:47:41.142Z,10.40
2022-11-10T06:50:42.969Z,10.40
2022-11-10T06:53:44.736Z,10.30
2022-11-10T06:56:46.435Z,10.30
2022-11-10T06:59:48.189Z,10.40
2022-11-10T07:03:08.755Z,10.40
2022-11-10T07:06:10.520Z,10.40
2022-11-10T07:09:12.452Z,10.40
2022-11-10T07:12:14.439Z,10.40
2022-11-10T07:15:16.412Z,10.40
2022-11-10T07:18:18.154Z,10.40
2022-11-10T07:21:19.971Z,10.40
2022-11-10T07:24:21.658Z,10.50
2022-11-10T07:27:23.473Z,10.40
2022-11-10T07:30:26.745Z,10.50
2022-11-10T07:33:31.051Z,10.50
2022-11-10T07:36:33.249Z,10.50
2022-11-10T07:39:35.278Z,10.60
2022-11-10T07:42:40.821Z,10.60
2022-11-10T07:45:42.675Z,10.70
2022-11-10T07:48:44.335Z,10.70
2022-11-10T07:51:46.133Z,10.80
2022-11-10T07:54:47.837Z,10.90
2022-11-10T07:57:50.466Z,10.90
2022-11-10T08:00:52.579Z,11.00
2022-11-10T08:03:54.381Z,11.10
2022-11-10T08:06:56.277Z,11.20
2022-11-10T08:09:58.300Z,11.20
2022-11-10T08:13:01.796Z,11.20
2022-11-10T08:16:03.834Z,11.40
2022-11-10T08:19:05.598Z,11.40
2022-11-10T08:22:07.945Z,11.40
2022-11-10T08:25:10.342Z,11.50
2022-11-10T08:28:15.440Z,11.50
2022-11-10T08:31:17.136Z,11.60
2022-11-10T08:34:19.012Z,11.60
2022-11-10T08:37:21.462Z,11.70
2022-11-10T08:40:27.515Z,11.70
2022-11-10T08:43:29.473Z,11.70
2022-11-10T08:46:31.158Z,11.80
2022-11-10T08:49:35.910Z,11.90
2022-11-10T08:52:38.045Z,11.90
2022-11-10T08:55:40.763Z,12.00
2022-11-10T08:58:48.797Z,12.10
2022-11-10T09:01:54.988Z,12.10
2022-11-10T09:04:56.961Z,12.20
2022-11-10T09:07:58.732Z,12.30
2022-11-10T09:11:04.247Z,12.40
2022-11-10T09:14:06.263Z,12.50
2022-11-10T09:17:08.042Z,12.60
2022-11-10T09:20:11.789Z,12.60
2022-11-10T09:23:17.397Z,12.60
2022-11-10T09:26:19.276Z,12.70
2022-11-10T09:29:22.649Z,12.80
2022-11-10T09:32:24.423Z,12.90
2022-11-10T09:35:27.175Z,13.00
2022-11-10T09:38:30.001Z,13.00
2022-11-10T09:41:32.731Z,13.10
2022-11-10T09:44:39.181Z,13.20
2022-11-10T09:47:57.982Z,13.20
2022-11-10T09:51:10.960Z,13.30
2022-11-10T09:54:27.397Z,13.40
2022-11-10T09:57:30.087Z,13.40
2022-11-10T10:00:35.356Z,13.50
2022-11-10T10:03:45.144Z,13.60
2022-11-10T10:07:11.702Z,13.70
2022-11-10T10:10:17.718Z,13.80
2022-11-10T10:13:53.558Z,13.80
2022-11-10T10:17:27.220Z,13.90
2022-11-10T10:20:55.264Z,14.00
2022-11-10T10:24:10.226Z,14.00
2022-11-10T10:27:27.753Z,14.10
2022-11-10T10:30:29.472Z,14.10
2022-11-10T10:33:31.544Z,14.20
2022-11-10T10:36:33.909Z,14.30
2022-11-10T10:39:46.368Z,14.30
2022-11-10T10:42:48.346Z,14.40
2022-11-10T10:46:11.880Z,14.40
2022-11-10T10:49:32.743Z,14.40
2022-11-10T10:52:34.565Z,14.50
2022-11-10T10:55:37.772Z,14.50
2022-11-10T10:58:57.259Z,14.60
2022-11-10T11:01:59.419Z,14.60
2022-11-10T11:05:20.294Z,14.70
2022-11-10T11:08:23.294Z,14.70
2022-11-10T11:11:31.514Z,14.80
2022-11-10T11:14:33.606Z,14.80
2022-11-10T11:17:35.701Z,14.80
2022-11-10T11:20:48.921Z,14.80
2022-11-10T11:24:10.825Z,14.80
2022-11-10T11:28:05.990Z,14.90
2022-11-10T11:31:19.241Z,15.00
2022-11-10T11:34:38.575Z,15.00
2022-11-10T11:38:19.358Z,15.00
2022-11-10T11:41:24.231Z,15.00
2022-11-10T11:44:33.359Z,15.10
2022-11-10T11:48:01.426Z,15.20
2022-11-10T11:51:24.630Z,15.20
2022-11-10T11:54:43.860Z,15.30
2022-11-10T11:57:55.099Z,15.30
2022-11-10T12:01:20.969Z,15.30
2022-11-10T12:04:53.252Z,15.30
2022-11-10T12:07:57.932Z,15.40
2022-11-10T12:11:19.791Z,15.40
2022-11-10T12:14:35.304Z,15.40
2022-11-10T12:17:54.667Z,15.50
2022-11-10T12:21:21.750Z,15.50
2022-11-10T12:24:57.539Z,15.50
2022-11-10T12:28:17.133Z,15.50
2022-11-10T12:31:23.489Z,15.60
2022-11-10T12:34:34.380Z,15.60
2022-11-10T12:37:52.907Z,15.60
2022-11-10T12:41:11.372Z,15.60
2022-11-10T12:44:16.357Z,15.60
2022-11-10T12:47:20.538Z,15.50
2022-11-10T12:50:38.647Z,15.50
2022-11-10T12:53:42.433Z,15.40
2022-11-10T12:57:07.742Z,15.40
2022-11-10T13:00:32.553Z,15.30
2022-11-10T13:03:39.706Z,15.30
2022-11-10T13:06:53.975Z,15.20
2022-11-10T13:10:26.135Z,15.20
2022-11-10T13:13:28.669Z,15.20
2022-11-10T13:16:52.149Z,15.20
2022-11-10T13:19:58.960Z,15.10
2022-11-10T13:23:30.840Z,15.10
2022-11-10T13:26:45.044Z,15.10
2022-11-10T13:29:46.903Z,15.10
2022-11-10T13:32:48.752Z,15.10
2022-11-10T13:35:56.249Z,15.00
2022-11-10T13:39:25.614Z,15.00
2022-11-10T13:42:27.432Z,15.00
2022-11-10T13:45:42.114Z,14.90
2022-11-10T13:49:23.372Z,14.90
2022-11-10T13:52:46.641Z,14.80
2022-11-10T13:56:06.725Z,14.80
2022-11-10T13:59:22.729Z,14.80
2022-11-10T14:02:34.003Z,14.80
2022-11-10T14:05:38.578Z,14.80
2022-11-10T14:08:45.632Z,14.80
2022-11-10T14:11:52.771Z,14.80
2022-11-10T14:15:26.995Z,14.70
2022-11-10T14:18:40.029Z,14.70
2022-11-10T14:21:52.768Z,14.70
2022-11-10T14:25:06.113Z,14.70
2022-11-10T14:28:27.371Z,14.70
2022-11-10T14:31:29.384Z,14.60
2022-11-10T14:34:35.571Z,14.70
2022-11-10T14:37:37.715Z,14.60
2022-11-10T14:40:41.768Z,14.60
2022-11-10T14:43:43.848Z,14.60
2022-11-10T14:46:45.534Z,14.50
2022-11-10T14:49:47.350Z,14.50
2022-11-10T14:52:53.704Z,14.50
2022-11-10T14:55:56.208Z,14.50
2022-11-10T14:59:01.184Z,14.50
2022-11-10T15:02:03.419Z,14.50
2022-11-10T15:05:05.768Z,14.40
2022-11-10T15:08:10.194Z,14.40
2022-11-10T15:11:33.878Z,14.40
2022-11-10T15:14:36.503Z,14.30
2022-11-10T15:17:47.434Z,14.30
2022-11-10T15:21:00.905Z,14.30
2022-11-10T15:24:05.829Z,14.30
2022-11-10T15:27:25.447Z,14.20
2022-11-10T15:30:27.489Z,14.20
2022-11-10T15:33:34.105Z,14.10
2022-11-10T15:36:41.072Z,14.00
2022-11-10T15:39:42.917Z,14.00
2022-11-10T15:42:44.719Z,14.00
2022-11-10T15:45:56.877Z,13.80
2022-11-10T15:48:58.940Z,13.80
2022-11-10T15:52:21.703Z,13.70
2022-11-10T15:55:24.697Z,13.70
2022-11-10T15:58:27.883Z,13.60
2022-11-10T16:01:31.206Z,13.60
2022-11-10T16:04:33.442Z,13.50
2022-11-10T16:07:35.139Z,13.40
2022-11-10T16:10:37.043Z,13.40
2022-11-10T16:13:38.748Z,13.40
2022-11-10T16:16:41.870Z,13.40
2022-11-10T16:19:43.890Z,13.40
2022-11-10T16:22:45.844Z,13.30
2022-11-10T16:25:49.747Z,13.30
2022-11-10T16:28:52.144Z,13.30
2022-11-10T16:31:53.826Z,13.20
2022-11-10T16:34:56.497Z,13.20
2022-11-10T16:37:59.103Z,13.20
2022-11-10T16:41:02.678Z,13.20
2022-11-10T16:44:05.933Z,13.10
2022-11-10T16:47:17.685Z,13.00
2022-11-10T16:50:28.348Z,13.00
2022-11-10T16:53:31.841Z,12.90
2022-11-10T16:56:33.810Z,12.90
2022-11-10T17:03:11.142Z,12.80
2022-11-10T17:06:15.217Z,12.80
2022-11-10T17:09:22.155Z,12.70
2022-11-10T17:12:24.137Z,12.80
2022-11-10T17:15:25.972Z,12.70
2022-11-10T17:18:28.417Z,12.70
2022-11-10T17:21:33.280Z,12.70
2022-11-10T17:24:35.993Z,12.70
2022-11-10T17:27:38.105Z,12.60
2022-11-10T17:30:40.562Z,12.70
2022-11-10T17:33:42.440Z,12.60
2022-11-10T17:36:44.427Z,12.60
2022-11-10T17:39:46.304Z,12.60
2022-11-10T17:42:48.608Z,12.60
2022-11-10T17:45:50.478Z,12.60
2022-11-10T17:49:00.159Z,12.50
2022-11-10T17:52:04.668Z,12.50
2022-11-10T17:55:06.643Z,12.40
2022-11-10T17:58:11.806Z,12.40
2022-11-10T18:01:19.583Z,12.40
2022-11-10T18:04:21.987Z,12.50
2022-11-10T18:07:23.766Z,12.40
2022-11-10T18:10:25.483Z,12.40
2022-11-10T18:13:27.193Z,12.40
2022-11-10T18:16:28.891Z,12.40
2022-11-10T18:19:30.974Z,12.40
2022-11-10T18:22:32.727Z,12.40
2022-11-10T18:25:41.469Z,12.40
2022-11-10T18:28:43.369Z,12.40
2022-11-10T18:31:45.073Z,12.40
2022-11-10T18:34:47.023Z,12.30
2022-11-10T18:37:48.789Z,12.30
2022-11-10T18:40:50.740Z,12.30
2022-11-10T18:43:52.949Z,12.30
2022-11-10T18:46:54.741Z,12.20
2022-11-10T18:49:56.449Z,12.20
2022-11-10T18:52:58.851Z,12.20
2022-11-10T18:56:00.828Z,12.20
2022-11-10T18:59:02.916Z,12.20
2022-11-10T19:02:05.835Z,12.20
2022-11-10T19:05:08.863Z,12.20
2022-11-10T19:08:10.799Z,12.20
2022-11-10T19:11:16.343Z,12.20
2022-11-10T19:14:18.391Z,12.20
2022-11-10T19:17:20.318Z,12.10
2022-11-10T19:20:22.082Z,12.10
2022-11-10T19:23:24.219Z,12.10
2022-11-10T19:26:28.144Z,12.10
2022-11-10T19:29:29.989Z,12.10
2022-11-10T19:32:31.796Z,12.10
2022-11-10T19:35:33.492Z,12.00
2022-11-10T19:38:36.173Z,12.00
2022-11-10T19:41:38.638Z,12.00
2022-11-10T19:44:40.409Z,12.00
2022-11-10T19:47:42.791Z,12.00
2022-11-10T19:50:49.328Z,11.90
2022-11-10T19:54:02.646Z,11.90
2022-11-10T19:57:04.970Z,11.80
2022-11-10T20:00:07.608Z,11.80
2022-11-10T20:03:11.393Z,11.80
2022-11-10T20:06:16.363Z,11.80
2022-11-10T20:09:18.079Z,11.80
2022-11-10T20:12:19.789Z,11.80
2022-11-10T20:15:21.603Z,11.70
2022-11-10T20:18:23.745Z,11.70
2022-11-10T20:21:25.785Z,11.70
2022-11-10T20:24:28.165Z,11.70
2022-11-10T20:27:30.049Z,11.70
2022-11-10T20:30:33.902Z,11.70
2022-11-10T20:33:36.569Z,11.60
2022-11-10T20:36:38.422Z,11.60
2022-11-10T20:39:40.370Z,11.60
2022-11-10T20:42:42.930Z,11.60
2022-11-10T20:45:44.803Z,11.60
2022-11-10T20:48:47.361Z,11.60
2022-11-10T20:51:49.632Z,11.60
2022-11-10T20:54:51.550Z,11.60
2022-11-10T20:57:53.883Z,11.60
2022-11-10T21:00:55.997Z,11.60
2022-11-10T21:03:59.167Z,11.60
2022-11-10T21:07:01.227Z,11.60
2022-11-10T21:10:03.314Z,11.60
2022-11-10T21:13:05.035Z,11.50
2022-11-10T21:16:07.313Z,11.50
2022-11-10T21:19:09.286Z,11.50
2022-11-10T21:22:11.031Z,11.50
2022-11-10T21:25:13.568Z,11.50
2022-11-10T21:28:15.326Z,11.60
2022-11-10T21:31:18.440Z,11.60
2022-11-10T21:34:20.184Z,11.60
2022-11-10T21:37:23.109Z,11.50
2022-11-10T21:40:25.456Z,11.50
2022-11-10T21:46:38.068Z,11.50
2022-11-10T21:49:39.778Z,11.50
2022-11-10T21:52:41.800Z,11.50
2022-11-10T21:55:43.707Z,11.50
2022-11-10T21:58:45.718Z,11.40
2022-11-10T22:01:47.532Z,11.40
2022-11-10T22:04:49.254Z,11.40
2022-11-10T22:07:50.982Z,11.40
2022-11-10T22:11:11.642Z,11.50
2022-11-10T22:14:32.222Z,11.30
2022-11-10T22:17:52.689Z,11.40
2022-11-10T22:20:54.422Z,11.30
2022-11-10T22:24:14.795Z,11.30
2022-11-10T22:27:16.657Z,11.30
2022-11-10T22:30:21.956Z,11.30
2022-11-10T22:33:30.605Z,11.30
2022-11-10T22:36:32.331Z,11.30
2022-11-10T22:43:38.946Z,11.30
2022-11-10T22:46:46.316Z,11.30
2022-11-10T22:49:48.062Z,11.30
2022-11-10T22:52:50.000Z,11.30
2022-11-10T22:55:52.201Z,11.30
2022-11-10T22:58:59.582Z,11.30
2022-11-10T23:02:02.115Z,11.30
2022-11-10T23:05:04.003Z,11.20
2022-11-10T23:08:06.021Z,11.30
2022-11-10T23:11:11.448Z,11.30
2022-11-10T23:14:13.211Z,11.20
2022-11-10T23:17:15.019Z,11.20
2022-11-10T23:20:20.003Z,11.20
2022-11-10T23:23:22.055Z,11.30
2022-11-10T23:26:26.972Z,11.20
2022-11-10T23:29:28.647Z,11.20
2022-11-10T23:32:30.429Z,11.20
2022-11-10T23:35:32.932Z,11.20
2022-11-10T23:38:36.526Z,11.20
2022-11-10T23:41:38.266Z,11.10
2022-11-10T23:44:40.245Z,11.10
2022-11-10T23:47:42.031Z,11.10
2022-11-10T23:50:43.896Z,11.10
2022-11-10T23:53:45.722Z,11.00
2022-11-10T23:56:47.420Z,11.00
2022-11-10T23:59:49.173Z,11.00
